createdAt,value
2023-04-18T00:00:50.511Z,21.00
2023-04-18T00:05:48.148Z,18.80
2023-04-18T00:08:15.848Z,20.83
2023-04-18T00:10:43.285Z,20.25
2023-04-18T00:13:12.049Z,20.50
2023-04-18T00:18:08.431Z,17.20
2023-04-18T00:20:38.983Z,21.23
2023-04-18T00:23:07.779Z,19.08
2023-04-18T00:28:02.681Z,15.82
2023-04-18T00:30:30.137Z,19.42
2023-04-18T00:32:57.581Z,19.13
2023-04-18T00:35:26.738Z,17.77
2023-04-18T00:40:21.288Z,18.35
2023-04-18T00:42:49.040Z,20.90
2023-04-18T00:45:16.581Z,18.92
2023-04-18T00:47:44.040Z,17.35
2023-04-18T00:50:12.938Z,17.30
2023-04-18T00:52:44.434Z,18.35
2023-04-18T00:55:12.326Z,20.48
2023-04-18T00:57:40.498Z,18.50
2023-04-18T01:00:09.972Z,16.70
2023-04-18T01:02:37.915Z,17.48
2023-04-18T01:05:06.538Z,17.55
2023-04-18T01:07:37.268Z,19.27
2023-04-18T01:10:07.526Z,15.48
2023-04-18T01:12:35.073Z,15.82
2023-04-18T01:15:03.968Z,15.65
2023-04-18T01:17:31.500Z,16.77
2023-04-18T01:19:58.910Z,17.73
2023-04-18T01:22:28.515Z,17.67
2023-04-18T01:24:57.386Z,16.58
2023-04-18T01:29:53.719Z,18.17
2023-04-18T01:32:22.487Z,15.80
2023-04-18T01:34:49.912Z,16.10
2023-04-18T01:37:17.591Z,15.48
2023-04-18T01:39:45.159Z,15.25
2023-04-18T01:42:13.931Z,21.02
2023-04-18T01:44:41.453Z,18.02
2023-04-18T01:47:08.858Z,14.90
2023-04-18T01:49:36.329Z,14.23
2023-04-18T01:52:03.788Z,15.63
2023-04-18T01:54:31.235Z,15.55
2023-04-18T01:56:58.747Z,17.30
2023-04-18T01:59:27.506Z,15.10
2023-04-18T02:01:55.049Z,16.17
2023-04-18T02:04:22.604Z,14.95
2023-04-18T02:06:49.948Z,14.55
2023-04-18T02:09:17.408Z,16.85
2023-04-18T02:11:44.814Z,15.23
2023-04-18T02:14:12.417Z,16.65
2023-04-18T02:16:41.234Z,16.90
2023-04-18T02:19:08.621Z,14.50
2023-04-18T02:21:36.081Z,16.80
2023-04-18T02:24:03.453Z,16.08
2023-04-18T02:26:30.927Z,15.68
2023-04-18T02:28:58.739Z,15.50
2023-04-18T02:31:26.885Z,14.75
2023-04-18T02:33:55.764Z,15.90
2023-04-18T02:38:50.821Z,15.13
2023-04-18T02:41:21.197Z,14.88
2023-04-18T02:43:48.780Z,15.98
2023-04-18T02:46:17.746Z,16.00
2023-04-18T02:48:48.256Z,18.80
2023-04-18T02:51:19.874Z,17.73
2023-04-18T02:53:48.183Z,14.80
2023-04-18T02:56:17.098Z,14.80
2023-04-18T02:59:10.554Z,14.90
2023-04-18T03:01:58.606Z,15.52
2023-04-18T03:04:26.194Z,15.27
2023-04-18T03:07:03.623Z,15.32
2023-04-18T03:09:35.241Z,17.17
2023-04-18T03:12:07.986Z,14.05
2023-04-18T03:14:37.955Z,17.23
2023-04-18T03:17:06.129Z,17.23
2023-04-18T03:19:39.625Z,14.85
2023-04-18T03:22:12.805Z,17.50
2023-04-18T03:24:46.825Z,17.67
2023-04-18T03:27:15.822Z,17.50
2023-04-18T03:29:45.342Z,16.73
2023-04-18T03:32:13.360Z,18.58
2023-04-18T03:34:41.294Z,16.10
2023-04-18T03:37:10.904Z,17.92
2023-04-18T03:39:44.130Z,15.93
2023-04-18T03:42:11.700Z,18.17
2023-04-18T03:44:40.594Z,16.50
2023-04-18T03:47:08.108Z,18.52
2023-04-18T03:49:39.033Z,15.32
2023-04-18T03:52:06.610Z,18.92
2023-04-18T03:54:35.449Z,17.10
2023-04-18T03:57:04.572Z,16.88
2023-04-18T03:59:33.675Z,17.75
2023-04-18T04:02:01.234Z,18.40
2023-04-18T04:04:28.788Z,17.92
2023-04-18T04:06:58.068Z,17.02
2023-04-18T04:09:25.897Z,16.40
2023-04-18T04:11:54.704Z,17.63
2023-04-18T04:14:22.764Z,17.60
2023-04-18T04:16:51.736Z,16.30
2023-04-18T04:19:20.319Z,16.70
2023-04-18T04:22:05.429Z,15.73
2023-04-18T04:24:33.673Z,17.45
2023-04-18T04:29:31.925Z,15.93
2023-04-18T04:31:59.916Z,17.55
2023-04-18T04:34:41.289Z,17.40
2023-04-18T04:37:13.847Z,16.85
2023-04-18T04:39:52.232Z,16.73
2023-04-18T04:42:32.754Z,17.27
2023-04-18T04:45:10.883Z,15.70
2023-04-18T04:47:38.486Z,17.38
2023-04-18T04:50:08.363Z,15.38
2023-04-18T04:52:36.126Z,18.10
2023-04-18T04:55:04.483Z,17.33
2023-04-18T04:57:33.929Z,16.73
2023-04-18T05:00:06.149Z,17.33
2023-04-18T05:02:33.720Z,17.92
2023-04-18T05:05:01.625Z,17.13
2023-04-18T05:07:30.853Z,20.30
2023-04-18T05:09:58.239Z,17.40
2023-04-18T05:12:26.706Z,17.55
2023-04-18T05:14:55.602Z,18.25
2023-04-18T05:17:23.076Z,16.95
2023-04-18T05:19:51.061Z,19.63
2023-04-18T05:22:18.477Z,18.63
2023-04-18T05:24:46.846Z,22.30
2023-04-18T05:27:15.924Z,17.42
2023-04-18T05:29:46.577Z,17.73
2023-04-18T05:32:15.349Z,17.10
2023-04-18T05:34:42.957Z,17.30
2023-04-18T05:37:10.772Z,19.33
2023-04-18T05:39:38.311Z,16.73
2023-04-18T05:42:05.819Z,18.48
2023-04-18T05:44:33.196Z,19.17
2023-04-18T05:47:01.012Z,17.45
2023-04-18T05:49:29.745Z,18.17
2023-04-18T05:51:57.636Z,19.92
2023-04-18T05:54:25.208Z,17.27
2023-04-18T05:56:52.849Z,18.75
2023-04-18T05:59:20.866Z,18.10
2023-04-18T06:01:49.346Z,16.10
2023-04-18T06:04:17.231Z,15.02
2023-04-18T06:06:46.307Z,16.27
2023-04-18T06:11:40.960Z,16.40
2023-04-18T06:14:08.354Z,15.52
2023-04-18T06:16:36.949Z,19.50
2023-04-18T06:19:05.120Z,15.23
2023-04-18T06:21:33.708Z,15.75
2023-04-18T06:24:02.509Z,17.23
2023-04-18T06:28:59.347Z,15.85
2023-04-18T06:31:26.844Z,15.80
2023-04-18T06:33:54.260Z,16.65
2023-04-18T06:36:21.841Z,19.95
2023-04-18T06:38:49.317Z,15.85
2023-04-18T06:41:18.145Z,17.33
2023-04-18T06:43:59.774Z,16.98
2023-04-18T06:46:30.386Z,16.48
2023-04-18T06:48:57.898Z,16.23
2023-04-18T06:51:25.409Z,15.80
2023-04-18T06:53:53.733Z,17.63
2023-04-18T06:56:22.992Z,17.20
2023-04-18T06:58:52.759Z,18.88
2023-04-18T07:01:20.267Z,16.35
2023-04-18T07:03:48.044Z,17.15
2023-04-18T07:06:15.570Z,21.13
2023-04-18T07:08:42.988Z,20.63
2023-04-18T07:11:11.487Z,19.35
2023-04-18T07:13:40.216Z,17.05
2023-04-18T07:18:38.338Z,21.33
2023-04-18T07:21:08.727Z,16.38
2023-04-18T07:23:36.482Z,21.63
2023-04-18T07:26:05.671Z,18.02
2023-04-18T07:28:33.422Z,19.98
2023-04-18T07:31:04.438Z,17.55
2023-04-18T07:33:33.720Z,20.67
2023-04-18T07:36:01.752Z,16.95
2023-04-18T07:38:29.130Z,18.83
2023-04-18T07:40:57.585Z,19.55
2023-04-18T07:43:25.035Z,16.27
2023-04-18T07:45:53.023Z,15.95
2023-04-18T07:48:27.879Z,17.05
2023-04-18T07:50:55.366Z,18.05
2023-04-18T07:53:23.012Z,19.38
2023-04-18T07:55:50.842Z,17.02
2023-04-18T07:58:18.257Z,16.00
2023-04-18T08:00:45.655Z,15.98
2023-04-18T08:03:13.728Z,18.48
2023-04-18T08:05:43.328Z,16.17
2023-04-18T08:08:12.062Z,17.33
2023-04-18T08:10:39.757Z,14.82
2023-04-18T08:13:07.116Z,16.98
2023-04-18T08:15:34.563Z,16.80
2023-04-18T08:18:02.201Z,17.67
2023-04-18T08:20:29.677Z,18.88
2023-04-18T08:23:06.859Z,16.90
2023-04-18T08:25:36.305Z,17.63
2023-04-18T08:28:04.357Z,17.40
2023-04-18T08:30:31.812Z,18.33
2023-04-18T08:32:59.331Z,22.27
2023-04-18T08:35:26.964Z,17.42
2023-04-18T08:37:54.489Z,16.17
2023-04-18T08:40:23.476Z,16.08
2023-04-18T08:42:52.871Z,19.55
2023-04-18T08:45:20.890Z,16.50
2023-04-18T08:47:48.443Z,17.83
2023-04-18T08:50:17.258Z,17.42
2023-04-18T08:52:48.805Z,17.42
2023-04-18T08:55:16.453Z,14.57
2023-04-18T08:57:45.274Z,15.18
2023-04-18T09:00:13.939Z,17.40
2023-04-18T09:02:45.001Z,16.85
2023-04-18T09:05:14.249Z,14.70
2023-04-18T09:07:42.765Z,17.33
2023-04-18T09:10:10.969Z,16.55
2023-04-18T09:12:42.586Z,15.48
2023-04-18T09:15:14.098Z,15.40
2023-04-18T09:17:45.603Z,14.27
2023-04-18T09:20:15.664Z,16.30
2023-04-18T09:22:48.513Z,14.75
2023-04-18T09:25:29.091Z,13.52
2023-04-18T09:28:01.737Z,15.05
2023-04-18T09:30:32.957Z,14.45
2023-04-18T09:33:01.554Z,13.07
2023-04-18T09:35:29.515Z,13.20
2023-04-18T09:37:56.918Z,11.82
2023-04-18T09:40:24.604Z,11.60
2023-04-18T09:42:54.255Z,13.93
2023-04-18T09:45:22.569Z,13.20
2023-04-18T09:47:52.026Z,12.25
2023-04-18T09:50:20.815Z,13.43
2023-04-18T09:52:48.638Z,11.73
2023-04-18T09:55:17.686Z,12.80
2023-04-18T09:57:46.887Z,13.98
2023-04-18T10:00:24.247Z,9.68
2023-04-18T10:02:58.011Z,11.63
2023-04-18T10:05:27.699Z,11.73
2023-04-18T10:07:55.776Z,10.57
2023-04-18T10:10:23.798Z,13.02
2023-04-18T10:12:55.152Z,11.25
2023-04-18T10:15:24.438Z,10.90
2023-04-18T10:18:04.476Z,10.38
2023-04-18T10:20:35.086Z,13.30
2023-04-18T10:23:34.766Z,12.88
2023-04-18T10:26:02.894Z,12.63
2023-04-18T10:28:53.498Z,11.15
2023-04-18T10:31:22.314Z,9.95
2023-04-18T10:34:03.767Z,12.52
2023-04-18T10:37:04.285Z,12.27
2023-04-18T10:39:47.945Z,10.57
2023-04-18T10:42:15.392Z,10.25
2023-04-18T10:44:42.856Z,10.23
2023-04-18T10:47:31.540Z,9.18
2023-04-18T10:50:01.519Z,10.68
2023-04-18T10:52:29.581Z,9.27
2023-04-18T10:55:13.604Z,10.43
2023-04-18T10:57:42.769Z,9.73
2023-04-18T11:00:12.618Z,7.28
2023-04-18T11:02:41.300Z,9.35
2023-04-18T11:05:10.836Z,9.05
2023-04-18T11:07:40.092Z,9.95
2023-04-18T11:10:09.551Z,8.57
2023-04-18T11:12:39.175Z,10.82
2023-04-18T11:15:11.396Z,11.40
2023-04-18T11:17:40.146Z,11.35
2023-04-18T11:20:14.266Z,10.65
2023-04-18T11:22:46.910Z,13.82
2023-04-18T11:25:14.706Z,14.07
2023-04-18T11:27:43.796Z,14.85
2023-04-18T11:30:12.244Z,10.05
2023-04-18T11:32:40.335Z,9.75
2023-04-18T11:35:12.199Z,10.15
2023-04-18T11:37:41.390Z,10.38
2023-04-18T11:40:10.088Z,9.68
2023-04-18T11:42:39.245Z,9.05
2023-04-18T11:45:10.702Z,8.43
2023-04-18T11:47:38.505Z,7.90
2023-04-18T11:50:07.877Z,9.13
2023-04-18T11:52:37.141Z,7.43
2023-04-18T11:55:17.746Z,7.70
2023-04-18T11:57:52.526Z,11.32
2023-04-18T12:00:30.808Z,7.20
2023-04-18T12:03:02.274Z,10.70
2023-04-18T12:05:31.441Z,9.20
2023-04-18T12:08:08.057Z,9.25
2023-04-18T12:10:36.142Z,8.57
2023-04-18T12:13:06.851Z,9.80
2023-04-18T12:15:38.677Z,8.63
2023-04-18T12:18:09.770Z,8.75
2023-04-18T12:20:39.952Z,8.13
2023-04-18T12:23:08.853Z,6.38
2023-04-18T12:25:36.629Z,9.23
2023-04-18T12:28:18.596Z,8.10
2023-04-18T12:33:13.381Z,9.70
2023-04-18T12:35:41.133Z,9.05
2023-04-18T12:38:09.901Z,9.07
2023-04-18T12:40:38.840Z,8.20
2023-04-18T12:43:06.925Z,10.13
2023-04-18T12:45:34.370Z,7.90
2023-04-18T12:48:02.326Z,7.10
2023-04-18T12:50:29.821Z,8.15
2023-04-18T12:52:59.799Z,8.18
2023-04-18T12:55:29.132Z,7.47
2023-04-18T12:57:58.047Z,8.88
2023-04-18T13:00:27.147Z,7.18
2023-04-18T13:02:55.825Z,6.35
2023-04-18T13:05:25.619Z,8.38
2023-04-18T13:07:56.379Z,7.80
2023-04-18T13:10:31.139Z,6.95
2023-04-18T13:12:58.613Z,6.40
2023-04-18T13:15:27.556Z,6.60
2023-04-18T13:17:58.356Z,7.80
2023-04-18T13:20:26.198Z,5.88
2023-04-18T13:22:53.774Z,5.97
2023-04-18T13:25:21.701Z,7.20
2023-04-18T13:27:50.606Z,6.22
2023-04-18T13:30:18.272Z,7.45
2023-04-18T13:32:46.098Z,5.05
2023-04-18T13:35:13.762Z,7.07
2023-04-18T13:37:41.511Z,5.63
2023-04-18T13:40:09.429Z,6.82
2023-04-18T13:42:38.473Z,6.90
2023-04-18T13:45:08.163Z,6.20
2023-04-18T13:47:35.933Z,6.53
2023-04-18T13:50:03.883Z,6.10
2023-04-18T13:52:31.409Z,6.90
2023-04-18T13:54:58.825Z,7.60
2023-04-18T13:57:26.232Z,7.07
2023-04-18T13:59:53.571Z,7.57
2023-04-18T14:02:22.708Z,7.95
2023-04-18T14:04:51.961Z,5.65
2023-04-18T14:07:19.623Z,8.15
2023-04-18T14:09:48.134Z,7.22
2023-04-18T14:12:15.695Z,7.43
2023-04-18T14:14:43.080Z,7.45
2023-04-18T14:17:10.471Z,6.82
2023-04-18T14:19:39.221Z,9.70
2023-04-18T14:22:07.825Z,10.20
2023-04-18T14:24:35.323Z,7.72
2023-04-18T14:27:02.837Z,9.40
2023-04-18T14:29:30.213Z,6.90
2023-04-18T14:31:57.622Z,6.75
2023-04-18T14:34:25.159Z,7.40
2023-04-18T14:36:53.988Z,8.70
2023-04-18T14:39:21.601Z,7.07
2023-04-18T14:41:49.048Z,6.00
2023-04-18T14:44:17.200Z,7.13
2023-04-18T14:46:44.781Z,6.82
2023-04-18T14:49:12.361Z,6.82
2023-04-18T14:51:39.877Z,9.18
2023-04-18T14:54:08.656Z,9.38
2023-04-18T14:56:36.125Z,7.82
2023-04-18T14:59:03.867Z,6.50
2023-04-18T15:01:31.295Z,7.78
2023-04-18T15:03:59.695Z,6.93
2023-04-18T15:08:54.633Z,7.75
2023-04-18T15:11:24.289Z,6.30
2023-04-18T15:13:51.761Z,8.32
2023-04-18T15:16:19.273Z,5.78
2023-04-18T15:18:46.806Z,5.03
2023-04-18T15:21:14.225Z,5.95
2023-04-18T15:23:41.910Z,6.60
2023-04-18T15:26:09.412Z,6.82
2023-04-18T15:28:38.208Z,9.52
2023-04-18T15:31:06.550Z,9.55
2023-04-18T15:33:33.983Z,9.52
2023-04-18T15:36:01.420Z,6.97
2023-04-18T15:38:30.488Z,6.32
2023-04-18T15:40:59.744Z,6.65
2023-04-18T15:43:27.165Z,5.97
2023-04-18T15:45:55.961Z,11.18
2023-04-18T15:48:23.374Z,6.13
2023-04-18T15:50:51.293Z,6.25
2023-04-18T15:53:18.939Z,8.45
2023-04-18T15:55:49.085Z,5.68
2023-04-18T15:58:16.646Z,5.70
2023-04-18T16:00:44.310Z,7.40
2023-04-18T16:03:13.289Z,8.93
2023-04-18T16:05:40.993Z,9.20
2023-04-18T16:08:11.644Z,6.07
2023-04-18T16:10:39.152Z,6.20
2023-04-18T16:13:06.694Z,8.38
2023-04-18T16:15:41.468Z,6.78
2023-04-18T16:18:09.121Z,6.35
2023-04-18T16:20:37.893Z,6.35
2023-04-18T16:23:05.380Z,6.47
2023-04-18T16:25:32.854Z,6.63
2023-04-18T16:28:00.296Z,7.88
2023-04-18T16:30:27.769Z,7.88
2023-04-18T16:32:55.285Z,9.35
2023-04-18T16:35:22.948Z,8.02
2023-04-18T16:37:51.792Z,8.25
2023-04-18T16:40:19.164Z,8.05
2023-04-18T16:42:46.862Z,6.60
2023-04-18T16:45:14.303Z,7.93
2023-04-18T16:47:41.787Z,7.55
2023-04-18T16:50:09.783Z,8.43
2023-04-18T16:52:37.280Z,7.32
2023-04-18T16:55:06.799Z,8.13
2023-04-18T16:57:34.308Z,9.13
2023-04-18T17:00:02.751Z,8.20
2023-04-18T17:02:33.023Z,7.40
2023-04-18T17:05:00.798Z,8.15
2023-04-18T17:07:28.444Z,10.88
2023-04-18T17:09:56.002Z,9.10
2023-04-18T17:12:24.808Z,7.53
2023-04-18T17:14:52.250Z,9.30
2023-04-18T17:17:19.659Z,8.65
2023-04-18T17:19:47.054Z,8.63
2023-04-18T17:22:14.523Z,8.23
2023-04-18T17:24:42.090Z,7.95
2023-04-18T17:27:09.455Z,8.77
2023-04-18T17:29:38.462Z,11.23
2023-04-18T17:32:06.110Z,13.30
2023-04-18T17:34:33.712Z,11.60
2023-04-18T17:37:01.174Z,12.88
2023-04-18T17:39:30.950Z,10.52
2023-04-18T17:41:58.449Z,11.32
2023-04-18T17:44:26.053Z,10.27
2023-04-18T17:46:54.837Z,9.38
2023-04-18T17:49:22.602Z,9.48
2023-04-18T17:51:50.164Z,9.32
2023-04-18T17:54:17.557Z,10.30
2023-04-18T17:56:45.536Z,8.77
2023-04-18T17:59:12.988Z,10.32
2023-04-18T18:01:40.626Z,8.32
2023-04-18T18:04:09.755Z,9.25
2023-04-18T18:06:37.199Z,9.05
2023-04-18T18:09:04.685Z,11.23
2023-04-18T18:11:32.103Z,10.15
2023-04-18T18:14:00.424Z,9.60
2023-04-18T18:16:27.977Z,8.85
2023-04-18T18:18:55.701Z,9.13
2023-04-18T18:21:24.446Z,9.07
2023-04-18T18:23:51.899Z,12.02
2023-04-18T18:26:19.315Z,7.75
2023-04-18T18:28:46.837Z,8.95
2023-04-18T18:31:14.358Z,11.02
2023-04-18T18:33:41.855Z,8.30
2023-04-18T18:36:09.343Z,8.43
2023-04-18T18:38:38.168Z,9.52
2023-04-18T18:41:05.921Z,7.90
2023-04-18T18:43:33.351Z,9.07
2023-04-18T18:46:00.959Z,9.50
2023-04-18T18:48:28.400Z,8.85
2023-04-18T18:50:56.525Z,11.85
2023-04-18T18:53:24.115Z,9.85
2023-04-18T18:55:52.932Z,8.20
2023-04-18T18:58:20.656Z,9.05
2023-04-18T19:00:48.350Z,8.57
2023-04-18T19:03:18.844Z,9.15
2023-04-18T19:05:46.458Z,10.35
2023-04-18T19:08:14.040Z,10.55
2023-04-18T19:10:41.790Z,9.32
2023-04-18T19:13:10.707Z,11.32
2023-04-18T19:15:38.302Z,10.15
2023-04-18T19:18:05.900Z,11.32
2023-04-18T19:20:33.392Z,11.23
2023-04-18T19:23:00.906Z,10.85
2023-04-18T19:25:28.265Z,10.35
2023-04-18T19:27:55.644Z,11.13
2023-04-18T19:30:25.161Z,10.90
2023-04-18T19:32:52.721Z,10.70
2023-04-18T19:35:20.474Z,9.57
2023-04-18T19:37:48.076Z,9.23
2023-04-18T19:40:15.617Z,12.18
2023-04-18T19:42:43.144Z,11.15
2023-04-18T19:45:12.033Z,10.45
2023-04-18T19:47:43.917Z,10.73
2023-04-18T19:50:11.765Z,12.27
2023-04-18T19:52:39.341Z,10.80
2023-04-18T19:55:07.807Z,11.95
2023-04-18T19:57:38.971Z,11.45
2023-04-18T20:00:07.993Z,11.38
2023-04-18T20:02:41.954Z,13.40
2023-04-18T20:05:10.360Z,13.82
2023-04-18T20:07:37.939Z,16.85
2023-04-18T20:10:06.621Z,12.15
2023-04-18T20:12:34.292Z,10.95
2023-04-18T20:15:01.941Z,11.25
2023-04-18T20:17:34.392Z,10.70
2023-04-18T20:20:04.534Z,11.02
2023-04-18T20:22:32.521Z,9.93
2023-04-18T20:25:01.486Z,10.55
2023-04-18T20:27:29.015Z,10.20
2023-04-18T20:29:57.305Z,9.48
2023-04-18T20:32:25.314Z,9.48
2023-04-18T20:34:53.435Z,9.95
2023-04-18T20:37:22.322Z,7.45
2023-04-18T20:39:49.867Z,10.00
2023-04-18T20:42:17.517Z,10.32
2023-04-18T20:44:46.589Z,8.57
2023-04-18T20:47:15.822Z,8.52
2023-04-18T20:49:43.505Z,7.88
2023-04-18T20:52:11.017Z,9.18
2023-04-18T20:54:41.094Z,8.50
2023-04-18T20:57:08.580Z,9.43
2023-04-18T20:59:36.027Z,8.15
2023-04-18T21:02:03.694Z,8.30
2023-04-18T21:04:31.314Z,6.72
2023-04-18T21:06:59.428Z,6.95
2023-04-18T21:09:26.790Z,8.02
2023-04-18T21:11:55.557Z,9.65
2023-04-18T21:14:22.981Z,7.72
2023-04-18T21:16:50.410Z,8.07
2023-04-18T21:19:17.915Z,8.13
2023-04-18T21:21:45.402Z,6.88
2023-04-18T21:24:13.008Z,7.75
2023-04-18T21:26:40.630Z,7.97
2023-04-18T21:29:09.494Z,10.10
2023-04-18T21:31:37.055Z,12.00
2023-04-18T21:34:05.460Z,11.82
2023-04-18T21:36:33.103Z,11.57
2023-04-18T21:39:01.358Z,10.30
2023-04-18T21:41:29.969Z,10.20
2023-04-18T21:43:57.513Z,11.80
2023-04-18T21:46:26.517Z,10.43
2023-04-18T21:48:54.070Z,11.30
2023-04-18T21:51:21.582Z,12.98
2023-04-18T21:53:49.134Z,10.93
2023-04-18T21:56:17.029Z,12.15
2023-04-18T21:58:44.397Z,11.63
2023-04-18T22:01:11.899Z,9.68
2023-04-18T22:03:41.012Z,10.07
2023-04-18T22:06:08.827Z,10.50
2023-04-18T22:08:36.659Z,9.85
2023-04-18T22:11:04.835Z,10.38
2023-04-18T22:13:35.671Z,10.68
2023-04-18T22:16:03.788Z,10.68
2023-04-18T22:18:33.516Z,10.85
2023-04-18T22:21:03.362Z,13.63
2023-04-18T22:23:31.317Z,9.43
2023-04-18T22:25:58.782Z,10.38
2023-04-18T22:28:27.962Z,9.38
2023-04-18T22:30:55.712Z,11.52
2023-04-18T22:33:23.207Z,10.13
2023-04-18T22:35:50.663Z,13.00
2023-04-18T22:38:19.435Z,11.85
2023-04-18T22:40:46.916Z,12.55
2023-04-18T22:43:14.373Z,12.25
2023-04-18T22:45:41.859Z,11.07
2023-04-18T22:48:12.138Z,13.98
2023-04-18T22:50:42.940Z,13.63
2023-04-18T22:53:10.564Z,13.95
2023-04-18T22:55:40.426Z,12.55
2023-04-18T22:58:08.482Z,14.82
2023-04-18T23:00:36.444Z,15.20
2023-04-18T23:03:04.571Z,13.95
2023-04-18T23:05:32.372Z,15.50
2023-04-18T23:08:00.624Z,17.77
2023-04-18T23:10:28.334Z,13.30
2023-04-18T23:12:57.022Z,14.50
2023-04-18T23:17:52.298Z,15.70
2023-04-18T23:20:20.191Z,16.63
2023-04-18T23:22:49.981Z,13.90
2023-04-18T23:25:17.574Z,17.52
2023-04-18T23:27:45.040Z,17.05
2023-04-18T23:30:14.257Z,15.50
2023-04-18T23:32:41.931Z,15.18
2023-04-18T23:35:11.676Z,16.85
2023-04-18T23:37:39.231Z,16.10
2023-04-18T23:40:08.185Z,17.85
2023-04-18T23:42:35.818Z,16.65
2023-04-18T23:45:04.032Z,17.25
2023-04-18T23:47:34.730Z,16.58
2023-04-18T23:50:02.500Z,16.48
2023-04-18T23:52:30.481Z,15.82
2023-04-18T23:54:59.592Z,15.70
2023-04-18T23:57:27.147Z,14.23
2023-04-18T23:59:54.598Z,13.57
